createdAt,value
2018-11-11T00:00:08.447Z,26.00
2018-11-11T00:10:09.717Z,24.33
2018-11-11T00:20:10.975Z,20.53
2018-11-11T00:30:12.236Z,25.53
2018-11-11T00:40:14.265Z,22.07
2018-11-11T00:50:15.551Z,25.50
2018-11-11T01:00:16.821Z,28.00
2018-11-11T01:10:18.081Z,27.27
2018-11-11T01:20:19.314Z,25.27
2018-11-11T01:30:20.595Z,37.20
2018-11-11T01:40:21.834Z,59.83
2018-11-11T01:50:23.086Z,51.03
2018-11-11T02:00:24.318Z,51.97
2018-11-11T02:10:25.567Z,38.50
2018-11-11T02:20:26.831Z,47.67
2018-11-11T02:30:28.097Z,31.97
2018-11-11T02:40:29.360Z,30.27
2018-11-11T02:50:30.640Z,28.43
2018-11-11T03:00:31.932Z,24.90
2018-11-11T03:10:33.196Z,24.97
2018-11-11T03:20:34.441Z,23.90
2018-11-11T03:30:36.488Z,21.73
2018-11-11T03:40:38.491Z,22.63
2018-11-11T03:50:40.516Z,22.90
2018-11-11T04:00:41.773Z,23.90
2018-11-11T04:10:43.042Z,21.40
2018-11-11T04:20:44.316Z,21.10
2018-11-11T04:30:45.591Z,24.00
2018-11-11T04:40:47.630Z,22.57
2018-11-11T04:50:49.995Z,21.07
2018-11-11T05:00:51.254Z,22.03
2018-11-11T05:10:52.526Z,22.20
2018-11-11T05:20:53.896Z,24.60
2018-11-11T05:30:55.150Z,26.00
2018-11-11T05:40:56.540Z,21.67
2018-11-11T05:50:57.790Z,22.57
2018-11-11T06:00:59.102Z,19.57
2018-11-11T06:11:00.382Z,20.43
2018-11-11T06:21:01.640Z,21.90
2018-11-11T06:31:02.939Z,20.80
2018-11-11T06:41:04.205Z,17.50
2018-11-11T06:51:05.459Z,19.73
2018-11-11T07:01:07.494Z,14.20
2018-11-11T07:11:09.526Z,13.37
2018-11-11T07:21:10.934Z,12.23
2018-11-11T07:31:12.186Z,10.57
2018-11-11T07:41:14.250Z,9.00
2018-11-11T07:51:16.593Z,7.67
2018-11-11T08:01:17.882Z,7.93
2018-11-11T08:11:19.496Z,7.03
2018-11-11T08:21:20.691Z,8.23
2018-11-11T08:31:21.956Z,7.23
2018-11-11T08:41:23.231Z,10.27
2018-11-11T08:51:24.478Z,8.75
2018-11-11T09:01:25.720Z,9.90
2018-11-11T09:11:26.982Z,8.90
2018-11-11T09:21:28.266Z,6.70
2018-11-11T09:31:29.581Z,7.20
2018-11-11T09:41:31.619Z,6.30
2018-11-11T09:51:32.899Z,7.15
2018-11-11T10:01:34.168Z,6.43
2018-11-11T10:11:35.439Z,6.53
2018-11-11T10:21:36.707Z,7.63
2018-11-11T10:31:37.957Z,5.50
2018-11-11T10:41:39.207Z,7.05
2018-11-11T10:51:40.476Z,4.87
2018-11-11T11:01:41.727Z,7.57
2018-11-11T11:11:43.002Z,4.07
2018-11-11T11:21:44.259Z,3.73
2018-11-11T11:31:45.888Z,6.77
2018-11-11T11:41:47.330Z,4.77
2018-11-11T11:51:48.691Z,5.53
2018-11-11T12:01:49.961Z,5.63
2018-11-11T12:11:51.316Z,4.40
2018-11-11T12:21:52.609Z,7.63
2018-11-11T12:31:53.862Z,5.00
2018-11-11T12:41:55.138Z,6.33
2018-11-11T12:51:56.426Z,7.70
2018-11-11T13:01:58.521Z,5.57
2018-11-11T13:11:59.828Z,4.43
2018-11-11T13:22:01.057Z,4.63
2018-11-11T13:32:02.519Z,7.93
2018-11-11T13:42:03.829Z,3.90
2018-11-11T13:52:06.126Z,6.33
2018-11-11T14:02:07.412Z,5.57
2018-11-11T14:12:08.722Z,3.13
2018-11-11T14:22:09.974Z,2.67
2018-11-11T14:32:11.279Z,4.93
2018-11-11T14:42:12.493Z,4.73
2018-11-11T14:52:13.916Z,7.33
2018-11-11T15:02:15.055Z,7.00
2018-11-11T15:12:16.367Z,8.10
2018-11-11T15:22:17.722Z,7.43
2018-11-11T15:32:18.977Z,6.03
2018-11-11T15:42:20.290Z,10.10
2018-11-11T15:52:21.595Z,12.53
2018-11-11T16:02:22.860Z,16.40
2018-11-11T16:12:24.146Z,10.63
2018-11-11T16:22:25.411Z,9.33
2018-11-11T16:32:26.650Z,10.73
2018-11-11T16:42:27.942Z,11.30
2018-11-11T16:52:29.202Z,11.83
2018-11-11T17:02:30.446Z,12.80
2018-11-11T17:12:31.737Z,10.73
2018-11-11T17:22:33.220Z,12.10
2018-11-11T17:32:35.495Z,13.63
2018-11-11T17:42:36.668Z,15.80
2018-11-11T17:52:37.950Z,15.57
2018-11-11T18:02:39.224Z,20.07
2018-11-11T18:12:40.506Z,18.80
2018-11-11T18:22:41.756Z,14.13
2018-11-11T18:32:43.754Z,21.37
2018-11-11T18:42:45.005Z,16.13
2018-11-11T18:52:46.282Z,16.13
2018-11-11T19:02:47.637Z,13.43
2018-11-11T19:12:48.947Z,13.77
2018-11-11T19:22:51.087Z,16.87
2018-11-11T19:32:52.366Z,17.63
2018-11-11T19:42:54.452Z,16.67
2018-11-11T19:52:55.862Z,15.07
2018-11-11T20:02:57.131Z,15.67
2018-11-11T20:12:58.425Z,13.83
2018-11-11T20:22:59.700Z,16.63
2018-11-11T20:33:01.101Z,12.90
2018-11-11T20:43:02.382Z,12.87
2018-11-11T20:53:03.602Z,15.90
2018-11-11T21:03:04.874Z,17.20
2018-11-11T21:13:06.155Z,14.57
2018-11-11T21:23:07.451Z,13.70
2018-11-11T21:33:09.500Z,12.83
2018-11-11T21:43:10.824Z,15.23
2018-11-11T21:53:12.185Z,15.77
2018-11-11T22:03:13.368Z,14.93
2018-11-11T22:13:14.604Z,13.40
2018-11-11T22:23:15.882Z,9.93
2018-11-11T22:33:17.124Z,16.20
2018-11-11T22:43:18.350Z,11.77
2018-11-11T22:53:19.639Z,10.83
2018-11-11T23:03:20.906Z,15.83
2018-11-11T23:13:22.164Z,12.27
2018-11-11T23:23:23.451Z,13.00
2018-11-11T23:33:24.738Z,10.83
2018-11-11T23:43:25.996Z,13.00
2018-11-11T23:53:28.015Z,10.30
